Accueil
METAR-TAF:

METAR-TAF

Aéroports :

Aéroport d'Aurigny

Aurigny,

latitude: 49-43N, longitude: 002-12W, altitude: 71 m

Observation

Le bulletin a été fait il y a 9 heures et 4 minutes, à 18:20 UTC
Vent 7 kt de est/nord-est
Température 7°C
Humidité 70%
Pression 1029 hPa
Visibilité 10 km ou plus
Quelques nuages à une hauteur de 2200 ft

METAR: EGJA 161820Z 07007KT 9999 FEW022 07/02 Q1029

Heure: 04:24 (03:24 UTC)

Prévision

Le bulletin a été fait il y a 13 heures et 28 minutes, à 13:56 UTC
Prévision valable du 16 à 15 UTC au 17 à 00 UTC
Vent 12 kt de nord-est
Visibilité 10 km ou plus
Quelques nuages à une hauteur de 2100 ft

TAF: EGJA 161356Z 1615/1700 05012KT 9999 FEW021

Observations et prévisions météorologiques de plus de 4000 aéroports (messages METAR et TAF).

Les stations disponibles sont représentées par des disques jaunes et rouges sur la carte.

Passer la souris dessus pour voir le nom de la station.

Cliquer dessus pour voir les observations et prévisions météorologiques.

Pour changer de carte: cliquez sur les boutons verts avec une croix noire pour zoomer, sur le bouton vert avec un tiret pour effectuer un zoom arrière, ou sur les flèches vertes pour les cartes adjacentes.


METAR-TAF: